Time;durP1;ratioP1;P1;durP2;ratioP2;P2;SDS_P1;SDS_P2;PMS_P1;PMS_P2;Temp;Humidity;BMP_temperature;BMP_pressure;BME280_temperature;BME280_humidity;BME280_pressure;Samples;Min_cycle;Max_cycle;Signal;HPM_P1;HPM_P2
2023/04/10 00:00:56;;;;;;;12.82;9.15;;;9.60;71.90;;;8.97;55.89;101194.19;5028283;28;20064;-88
2023/04/10 00:03:23;;;;;;;14.05;8.80;;;9.60;71.90;;;8.97;55.88;101190.72;5026686;28;20194;-85
2023/04/10 00:05:53;;;;;;;14.20;9.18;;;9.60;72.10;;;8.97;55.79;101193.38;5027750;28;20056;-84
2023/04/10 00:08:21;;;;;;;13.45;9.23;;;9.60;72.30;;;8.96;56.15;101191.72;5026889;28;20064;-86
2023/04/10 00:10:48;;;;;;;14.88;9.02;;;9.60;72.40;;;8.96;55.99;101186.41;5028018;28;20728;-84
2023/04/10 00:13:15;;;;;;;14.70;9.30;;;9.60;72.30;;;8.95;55.98;101185.59;5028735;28;20144;-84
2023/04/10 00:15:43;;;;;;;12.07;8.52;;;9.60;72.50;;;8.93;56.19;101184.09;5028912;28;20048;-85
2023/04/10 00:18:12;;;;;;;12.57;8.80;;;9.50;72.60;;;8.91;56.30;101173.66;5027422;28;20045;-84
2023/04/10 00:20:39;;;;;;;16.42;9.02;;;9.50;72.70;;;8.88;56.68;101176.69;5026246;28;20087;-87
2023/04/10 00:23:06;;;;;;;13.75;8.35;;;9.50;73.00;;;8.86;56.48;101170.72;5028743;28;20141;-85
2023/04/10 00:25:34;;;;;;;16.67;9.55;;;9.50;73.00;;;8.85;56.58;101165.59;5028473;28;20125;-85
2023/04/10 00:28:01;;;;;;;13.13;8.18;;;9.50;73.10;;;8.86;56.76;101167.22;5028501;28;20041;-85
2023/04/10 00:30:28;;;;;;;14.63;8.75;;;9.50;73.30;;;8.85;56.63;101165.59;5026368;28;20099;-86
2023/04/10 00:32:55;;;;;;;12.95;9.40;;;9.50;73.20;;;8.84;56.74;101155.97;5026074;28;20045;-86
2023/04/10 00:35:24;;;;;;;12.57;9.00;;;9.50;73.30;;;8.83;56.79;101148.97;5027808;28;20099;-86
2023/04/10 00:37:53;;;;;;;13.45;9.10;;;9.40;73.30;;;8.83;57.00;101151.63;5032753;28;20040;-85
2023/04/10 00:40:21;;;;;;;17.15;9.77;;;9.40;73.40;;;8.82;56.90;101148.16;5037183;28;20470;-86
2023/04/10 00:42:48;;;;;;;13.55;9.00;;;9.40;73.50;;;8.81;56.93;101146.50;5030792;28;20060;-86
2023/04/10 00:45:15;;;;;;;12.82;8.57;;;9.40;73.60;;;8.80;57.13;101152.00;5031691;28;20532;-86
2023/04/10 00:47:42;;;;;;;12.40;8.60;;;9.40;73.60;;;8.79;57.07;101150.38;5031795;28;20049;-87
2023/04/10 00:50:11;;;;;;;12.52;8.63;;;9.40;73.60;;;8.75;57.22;101144.59;5028561;28;20037;-87
2023/04/10 00:52:39;;;;;;;12.95;8.90;;;9.40;73.70;;;8.73;57.31;101139.44;5029128;28;20560;-88
2023/04/10 00:55:09;;;;;;;15.93;8.90;;;9.40;73.90;;;8.72;57.25;101140.44;5031449;28;20652;-86
2023/04/10 00:57:36;;;;;;;13.45;8.80;;;9.30;73.90;;;8.71;57.32;101143.28;5031514;28;20103;-87
2023/04/10 01:00:05;;;;;;;13.65;8.93;;;9.30;74.10;;;8.70;57.42;101145.13;5031170;28;20473;-86
2023/04/10 01:02:32;;;;;;;13.18;8.85;;;9.40;74.30;;;8.68;57.28;101136.47;5020306;28;20141;-85
2023/04/10 01:05:01;;;;;;;13.43;9.32;;;9.30;74.20;;;8.67;57.41;101134.84;5029795;28;20141;-84
2023/04/10 01:07:44;;;;;;;13.75;8.95;;;9.30;74.10;;;8.67;57.36;101128.69;5031692;28;20091;-85
2023/04/10 01:10:18;;;;;;;13.93;8.95;;;9.30;74.30;;;8.65;57.38;101136.88;5030876;28;20120;-86
2023/04/10 01:12:59;;;;;;;14.70;9.02;;;9.30;74.30;;;8.64;57.49;101131.75;5029749;28;20388;-84
2023/04/10 01:15:30;;;;;;;14.10;9.63;;;9.30;74.30;;;8.63;57.47;101138.88;5005529;28;20494;-86
2023/04/10 01:18:05;;;;;;;14.23;9.75;;;9.20;74.30;;;8.63;57.60;101130.06;5010066;28;20104;-85
2023/04/10 01:20:38;;;;;;;17.08;10.05;;;9.20;74.30;;;8.62;57.40;101126.59;5026607;28;20422;-87
2023/04/10 01:23:41;;;;;;;15.15;9.40;;;9.20;74.30;;;8.62;57.46;101125.75;5028258;28;20098;-84
2023/04/10 01:26:11;;;;;;;14.60;10.00;;;9.40;74.40;;;8.61;57.49;101130.25;5029793;28;20083;-87
2023/04/10 01:28:55;;;;;;;14.07;10.30;;;9.20;74.30;;;8.60;57.34;101122.47;5029436;28;20053;-85
2023/04/10 01:31:35;;;;;;;14.15;9.93;;;9.20;74.20;;;8.60;57.52;101122.47;5029346;28;20148;-85
2023/04/10 01:34:07;;;;;;;12.93;9.20;;;9.20;74.30;;;8.59;57.61;101108.34;5040574;28;20045;-84
2023/04/10 01:36:48;;;;;;;14.70;10.13;;;9.20;74.20;;;8.59;57.74;101108.34;5038421;28;20423;-85
2023/04/10 01:39:20;;;;;;;16.35;9.82;;;9.20;74.50;;;8.58;57.69;101104.03;5029561;28;20149;-86
2023/04/10 01:41:48;;;;;;;;;;;9.20;74.40;;;8.58;57.47;101098.72;5032305;28;20053;-85
2023/04/10 01:44:21;;;;;;;14.98;9.52;;;9.20;74.30;;;8.56;57.65;101095.41;5029848;28;19983;-85
2023/04/10 01:46:50;;;;;;;16.25;9.63;;;9.20;74.60;;;8.57;57.67;101096.25;5029737;28;20269;-84
2023/04/10 01:49:18;;;;;;;14.25;9.68;;;9.20;74.50;;;8.54;57.76;101086.81;5028765;28;20121;-85
2023/04/10 01:51:46;;;;;;;14.65;9.57;;;9.20;74.50;;;8.52;57.82;101089.63;5030923;28;20194;-85
2023/04/10 01:54:14;;;;;;;14.50;9.95;;;9.20;74.60;;;8.52;57.85;101088.81;5031645;28;20156;-84
2023/04/10 01:56:43;;;;;;;14.20;9.27;;;9.10;74.70;;;8.51;57.87;101089.81;5049155;22;20092;-76
2023/04/10 01:59:12;;;;;;;13.38;9.23;;;9.10;74.90;;;8.50;58.16;101093.50;5049401;28;20044;-77
2023/04/10 02:01:41;;;;;;;15.88;9.88;;;9.10;74.90;;;8.47;57.95;101086.69;5048213;28;20758;-75
2023/04/10 02:04:08;;;;;;;13.57;9.30;;;9.10;75.10;;;8.46;58.16;101084.22;5054185;28;20049;-73
2023/04/10 02:06:45;;;;;;;13.60;9.48;;;9.10;75.00;;;8.45;58.22;101088.72;5050182;28;20049;-78
2023/04/10 02:09:20;;;;;;;14.80;9.77;;;9.10;75.20;;;8.45;58.19;101087.91;5046080;28;20111;-74
2023/04/10 02:11:59;;;;;;;15.48;10.00;;;9.00;75.20;;;8.44;58.62;101087.09;5049420;28;20049;-76
2023/04/10 02:14:31;;;;;;;14.05;9.80;;;9.10;75.40;;;8.43;58.24;101087.25;5023542;28;20057;-73
2023/04/10 02:17:02;;;;;;;15.88;9.73;;;9.00;75.40;;;8.43;58.19;101080.09;5048352;28;20450;-74
2023/04/10 02:19:32;;;;;;;14.38;9.80;;;9.10;75.40;;;8.43;58.35;101080.09;5045299;28;20049;-74
2023/04/10 02:22:00;;;;;;;14.63;10.07;;;9.00;75.40;;;8.44;58.25;101084.41;5038763;28;20072;-76
2023/04/10 02:24:28;;;;;;;14.35;9.55;;;9.00;75.40;;;8.41;58.50;101068.81;5050183;28;20111;-74
2023/04/10 02:26:56;;;;;;;13.40;8.80;;;9.00;75.40;;;8.42;58.56;101067.00;5047894;28;20053;-75
2023/04/10 02:29:23;;;;;;;14.68;10.02;;;9.00;75.60;;;8.42;58.49;101069.66;5048409;28;20501;-75
2023/04/10 02:31:51;;;;;;;14.98;10.15;;;9.00;75.60;;;8.43;58.65;101071.28;5048375;28;20125;-76
2023/04/10 02:34:21;;;;;;;15.50;10.20;;;9.00;75.60;;;8.42;58.50;101064.34;5049224;28;20064;-74
2023/04/10 02:36:48;;;;;;;15.63;10.13;;;9.10;75.70;;;8.42;58.60;101067.00;5049750;28;20136;-75
2023/04/10 02:39:15;;;;;;;17.35;10.48;;;9.00;75.50;;;8.43;58.44;101072.13;5049648;28;20461;-74
2023/04/10 02:41:48;;;;;;;14.55;9.63;;;9.10;75.50;;;8.42;58.56;101062.50;5053957;28;20139;-74
2023/04/10 02:44:16;;;;;;;15.38;10.40;;;9.00;75.60;;;8.42;58.46;101061.69;5044278;28;20640;-76
2023/04/10 02:46:43;;;;;;;16.10;10.23;;;9.00;75.70;;;8.42;58.71;101067.00;5031391;28;20071;-75
2023/04/10 02:49:12;;;;;;;13.88;9.82;;;9.10;75.90;;;8.42;58.45;101067.00;5047466;28;20049;-78
2023/04/10 02:51:41;;;;;;;14.50;10.02;;;9.10;75.70;;;8.43;58.56;101071.28;5047498;28;20059;-75
2023/04/10 02:54:08;;;;;;;16.40;10.82;;;9.00;75.40;;;8.41;58.49;101074.13;5048740;28;20114;-76
2023/04/10 02:56:36;;;;;;;15.23;9.95;;;9.00;75.20;;;8.38;58.28;101071.84;5036724;28;20084;-76
2023/04/10 02:59:03;;;;;;;15.57;10.75;;;9.00;75.20;;;8.37;58.22;101074.69;5053318;28;20045;-74
2023/04/10 03:01:31;;;;;;;14.45;10.05;;;9.00;75.40;;;8.35;58.40;101066.88;5046986;28;20135;-77
2023/04/10 03:04:01;;;;;;;15.88;10.40;;;9.00;75.40;;;8.33;58.48;101063.56;5038452;28;20532;-75
2023/04/10 03:06:32;;;;;;;16.63;10.85;;;8.90;75.40;;;8.32;58.60;101059.25;5011117;28;20356;-77
2023/04/10 03:09:00;;;;;;;15.07;9.95;;;8.90;75.60;;;8.31;58.69;101054.13;5011428;28;20402;-75
2023/04/10 03:11:29;;;;;;;14.18;9.90;;;9.10;75.80;;;8.29;58.88;101059.59;5045369;28;20037;-73
2023/04/10 03:13:57;;;;;;;16.02;10.00;;;8.90;75.90;;;8.28;58.80;101052.66;5048360;28;20044;-73
2023/04/10 03:16:24;;;;;;;13.48;9.77;;;8.90;76.00;;;8.26;58.68;101052.84;5030694;28;20795;-76
2023/04/10 03:18:52;;;;;;;15.82;10.40;;;8.90;76.00;;;8.26;58.92;101049.34;5045601;28;20045;-74
2023/04/10 03:21:20;;;;;;;15.40;10.18;;;8.90;76.00;;;8.24;58.74;101046.84;5030042;28;20051;-73
2023/04/10 03:23:49;;;;;;;14.02;10.07;;;8.90;75.90;;;8.22;58.83;101038.25;5048843;28;20491;-77
2023/04/10 03:26:17;;;;;;;17.27;10.27;;;8.90;76.00;;;8.21;59.13;101036.63;5047475;28;20053;-74
2023/04/10 03:28:44;;;;;;;14.25;9.45;;;8.80;76.10;;;8.20;58.99;101032.31;5030041;28;20123;-75
2023/04/10 03:31:12;;;;;;;14.85;9.77;;;8.80;76.20;;;8.21;59.04;101025.16;5054134;28;20136;-75
2023/04/10 03:33:41;;;;;;;15.27;10.43;;;8.80;76.30;;;8.21;59.28;101020.66;5052587;28;20100;-73
2023/04/10 03:36:09;;;;;;;15.32;9.82;;;8.80;76.40;;;8.21;59.10;101018.00;5048498;28;20523;-76
2023/04/10 03:38:36;;;;;;;16.75;10.55;;;8.80;76.40;;;8.22;58.80;101018.84;5037204;28;20049;-78
2023/04/10 03:41:05;;;;;;;15.48;10.13;;;8.80;76.30;;;8.22;59.31;101014.34;5035870;28;20140;-75
2023/04/10 03:43:34;;;;;;;15.75;10.15;;;8.80;76.60;;;8.25;58.90;101021.16;5047325;28;20045;-75
2023/04/10 03:46:03;;;;;;;16.57;10.63;;;8.90;76.40;;;8.26;59.13;101012.16;5030518;28;20044;-75
2023/04/10 03:48:32;;;;;;;15.85;11.02;;;8.90;76.40;;;8.31;58.86;101019.59;5046421;28;20061;-74
2023/04/10 03:50:59;;;;;;;15.88;10.55;;;8.90;76.10;;;8.30;59.06;101018.75;5045098;28;20053;-75
2023/04/10 03:53:26;;;;;;;16.48;11.07;;;8.90;76.20;;;8.31;58.73;101017.75;5030511;28;20178;-74
2023/04/10 03:55:54;;;;;;;17.73;10.43;;;8.90;76.10;;;8.33;59.01;101014.91;5030479;28;20756;-76
2023/04/10 03:58:23;;;;;;;17.13;11.20;;;8.90;76.20;;;8.34;58.85;101013.88;5037296;28;20048;-74
2023/04/10 04:00:54;;;;;;;15.13;10.32;;;8.90;76.20;;;8.35;58.87;101015.56;5034106;28;20048;-76
2023/04/10 04:03:30;;;;;;;15.93;10.48;;;9.00;75.80;;;8.34;58.67;101011.22;5039096;28;20063;-76
2023/04/10 04:06:00;;;;;;;16.70;10.32;;;8.90;76.00;;;8.33;58.67;101010.41;5047416;28;20049;-74
2023/04/10 04:08:38;;;;;;;14.45;10.07;;;9.00;75.90;;;8.33;58.95;101006.94;5042823;28;20045;-77
2023/04/10 04:11:11;;;;;;;17.58;10.88;;;9.00;76.00;;;8.34;58.76;101006.72;5046397;28;20052;-74
2023/04/10 04:14:00;;;;;;;14.75;10.70;;;9.00;75.90;;;8.35;58.63;101000.44;5063593;28;20421;-73
2023/04/10 04:16:49;;;;;;;13.75;9.60;;;9.00;75.90;;;8.34;58.82;101003.25;5050294;28;20072;-77
2023/04/10 04:19:39;;;;;;;17.33;10.60;;;8.90;75.80;;;8.34;58.72;101001.41;5044141;28;20140;-73
2023/04/10 04:22:23;;;;;;;18.10;10.65;;;9.00;75.90;;;8.34;58.83;100997.94;5059211;28;20056;-77
2023/04/10 04:25:09;;;;;;;15.30;10.40;;;9.00;75.90;;;8.35;58.83;101003.09;5049819;28;20118;-76
2023/04/10 04:28:03;;;;;;;15.90;10.27;;;9.00;75.90;;;8.36;58.70;100996.78;5038749;28;20053;-74
2023/04/10 04:30:38;;;;;;;15.25;9.77;;;9.00;75.70;;;8.38;58.60;101004.56;5065939;28;20068;-76
2023/04/10 04:33:19;;;;;;;16.00;10.20;;;9.00;75.80;;;8.40;58.37;100989.28;5033076;28;20052;-76
2023/04/10 04:36:09;;;;;;;;;;;9.00;75.40;;;8.40;58.25;100983.97;5049019;28;20048;-74
2023/04/10 04:38:39;;;;;;;13.63;9.43;;;9.00;75.40;;;8.40;58.27;100990.09;5051865;28;19929;-75
2023/04/10 04:41:31;;;;;;;14.95;9.70;;;9.00;75.30;;;8.40;58.23;100983.97;5043550;28;20064;-74
2023/04/10 04:44:05;;;;;;;13.77;9.18;;;9.00;75.40;;;8.40;58.04;100994.59;5051050;28;20060;-74
2023/04/10 04:46:51;;;;;;;16.63;9.50;;;9.00;75.20;;;8.42;57.93;100989.91;5050518;28;20408;-77
2023/04/10 04:49:42;;;;;;;13.27;9.15;;;9.00;75.10;;;8.42;58.09;100989.91;5039368;28;20061;-74
2023/04/10 04:52:26;;;;;;;14.35;9.23;;;9.10;75.30;;;8.42;58.08;100987.25;5048635;28;20060;-77
2023/04/10 04:55:10;;;;;;;17.15;9.75;;;9.00;75.10;;;8.43;58.04;100983.59;5050940;28;20064;-75
2023/04/10 04:57:58;;;;;;;13.15;9.27;;;9.00;75.10;;;8.44;58.00;100979.91;5033555;28;20064;-76
2023/04/10 05:00:45;;;;;;;15.35;9.30;;;9.10;75.10;;;8.49;57.64;100981.03;5040676;28;20139;-75
2023/04/10 05:03:47;;;;;;;15.93;9.73;;;9.10;74.80;;;8.52;57.88;100980.63;5009079;28;20061;-76
2023/04/10 05:06:36;;;;;;;13.80;8.50;;;9.10;75.00;;;8.57;56.80;100987.25;5008897;28;20826;-74
2023/04/10 05:09:22;;;;;;;13.35;8.80;;;9.20;73.20;;;8.61;56.92;100984.03;5043158;28;20191;-75
2023/04/10 05:12:21;;;;;;;12.48;8.63;;;9.30;73.90;;;8.67;56.76;100979.78;5027130;28;20111;-76
2023/04/10 05:14:55;;;;;;;13.48;8.77;;;9.30;73.90;;;8.74;56.32;100986.03;5053905;28;20857;-76
2023/04/10 05:17:35;;;;;;;12.68;8.70;;;9.40;73.10;;;8.76;56.36;100974.19;5026075;28;20061;-75
2023/04/10 05:20:12;;;;;;;13.32;8.32;;;9.40;73.00;;;8.81;55.99;100975.47;5049576;28;20045;-75
2023/04/10 05:23:10;;;;;;;13.00;8.70;;;9.50;72.70;;;8.89;55.58;100975.38;5042047;28;20057;-76
2023/04/10 05:26:04;;;;;;;11.93;8.05;;;9.60;72.20;;;8.94;55.10;100980.94;5030978;28;20049;-76
2023/04/10 05:28:50;;;;;;;11.95;7.97;;;9.60;71.30;;;9.00;53.78;100985.50;5049531;28;20060;-76
2023/04/10 05:31:38;;;;;;;9.88;7.03;;;9.70;70.00;;;9.08;53.04;100988.06;5019497;28;20064;-74
2023/04/10 05:34:19;;;;;;;11.73;7.75;;;9.80;69.10;;;9.16;52.95;100989.75;5048721;28;20059;-76
2023/04/10 05:37:00;;;;;;;11.18;7.43;;;9.90;69.10;;;9.24;52.72;100987.81;5057801;28;20132;-75
2023/04/10 05:39:47;;;;;;;12.75;7.68;;;9.90;68.70;;;9.30;52.51;100983.56;5050985;28;20665;-75
2023/04/10 05:42:27;;;;;;;10.95;7.85;;;10.00;68.30;;;9.36;52.50;100985.44;5049961;28;20045;-75
2023/04/10 05:45:14;;;;;;;11.18;7.43;;;10.20;68.50;;;9.42;51.51;100968.75;5049050;28;20042;-74
2023/04/10 05:48:08;;;;;;;13.55;8.25;;;10.10;67.10;;;9.48;51.85;100961.81;5039889;28;20502;-76
2023/04/10 05:51:10;;;;;;;10.85;7.25;;;10.20;67.60;;;9.57;51.33;100970.50;4999887;28;20514;-75
2023/04/10 05:53:59;;;;;;;11.48;7.22;;;10.30;66.70;;;9.64;51.65;100966.88;5030640;28;20049;-75
2023/04/10 05:56:49;;;;;;;10.95;7.00;;;10.40;67.10;;;9.71;51.26;100970.41;5050286;28;20191;-77
2023/04/10 05:59:39;;;;;;;11.73;7.20;;;10.40;66.60;;;9.78;51.10;100968.63;5050401;28;20049;-76
2023/04/10 06:02:26;;;;;;;10.35;7.55;;;10.50;66.50;;;9.84;50.92;100967.00;5049714;28;20052;-78
2023/04/10 06:04:53;;;;;;;9.70;6.60;;;10.60;66.00;;;9.93;50.07;100962.38;5057644;28;20041;-74
2023/04/10 06:07:20;;;;;;;12.02;7.00;;;10.60;65.00;;;10.00;50.49;100965.88;5054981;28;20508;-77
2023/04/10 06:09:48;;;;;;;9.52;6.72;;;10.70;65.70;;;10.06;50.69;100967.78;5026656;28;20131;-75
2023/04/10 06:12:16;;;;;;;10.57;6.85;;;10.80;66.00;;;10.12;50.90;100966.19;5048520;28;20056;-77
2023/04/10 06:14:44;;;;;;;8.63;6.57;;;10.90;66.00;;;10.17;50.90;100964.56;5019523;28;20056;-75
2023/04/10 06:17:12;;;;;;;9.45;6.60;;;10.90;66.00;;;10.24;50.34;100962.78;5048075;28;20400;-75
2023/04/10 06:19:39;;;;;;;10.15;7.03;;;11.00;65.20;;;10.31;50.48;100968.16;5039785;28;20060;-75
2023/04/10 06:22:06;;;;;;;9.65;6.30;;;11.10;65.20;;;10.35;49.55;100958.75;5051502;28;20051;-75
2023/04/10 06:24:33;;;;;;;10.63;6.40;;;11.10;64.10;;;10.40;49.17;100943.00;5047761;28;20063;-76
2023/04/10 06:27:01;;;;;;;9.65;6.90;;;11.20;63.60;;;10.46;49.53;100954.69;5033936;28;20071;-80
2023/04/10 06:29:30;;;;;;;12.27;6.90;;;11.20;63.90;;;10.49;49.07;100944.47;5038035;28;20123;-74
2023/04/10 06:31:57;;;;;;;9.23;6.20;;;11.30;63.60;;;10.54;49.13;100946.50;5026109;28;20052;-75
2023/04/10 06:34:25;;;;;;;9.95;6.57;;;11.30;63.60;;;10.59;48.35;100930.75;5047544;28;20045;-75
2023/04/10 06:36:57;;;;;;;11.20;7.07;;;11.40;62.60;;;10.63;47.96;100931.97;5042982;28;20053;-72
2023/04/10 06:39:25;;;;;;;9.65;6.70;;;11.50;61.90;;;10.68;48.60;100937.53;5026379;28;20810;-75
2023/04/10 06:41:53;;;;;;;9.80;6.43;;;11.50;62.80;;;10.72;48.43;100945.97;5028057;28;20113;-75
2023/04/10 06:44:31;;;;;;;10.25;6.80;;;11.50;62.40;;;10.78;47.98;100947.84;5041012;28;20045;-76
2023/04/10 06:46:58;;;;;;;9.18;6.40;;;11.60;61.90;;;10.86;47.58;100953.00;5044576;28;20036;-72
2023/04/10 06:49:26;;;;;;;10.40;6.70;;;11.70;61.40;;;10.96;48.78;100955.28;5038041;28;20045;-74
2023/04/10 06:51:53;;;;;;;9.38;6.30;;;11.80;62.80;;;11.06;47.81;100947.72;5036651;28;20045;-73
2023/04/10 06:54:20;;;;;;;8.88;5.90;;;11.90;61.70;;;11.18;47.25;100954.09;5041595;28;20497;-74
2023/04/10 06:56:48;;;;;;;9.45;6.28;;;12.00;60.80;;;11.33;47.49;100951.25;5048335;28;20045;-73
2023/04/10 06:59:15;;;;;;;10.65;6.35;;;12.10;61.10;;;11.45;46.37;100940.75;5049156;28;20582;-72
2023/04/10 07:01:43;;;;;;;8.95;6.45;;;12.30;59.50;;;11.57;46.89;100947.16;5047850;28;20053;-75
2023/04/10 07:04:11;;;;;;;10.65;7.05;;;12.40;60.20;;;11.65;46.01;100932.75;5049060;28;20137;-73
2023/04/10 07:06:38;;;;;;;10.85;6.38;;;12.50;58.90;;;11.77;46.22;100934.59;5040764;28;20045;-74
2023/04/10 07:09:08;;;;;;;9.20;6.20;;;12.60;59.30;;;11.87;46.91;100933.38;5043591;28;20124;-73
2023/04/10 07:11:35;;;;;;;8.70;6.00;;;12.70;59.70;;;11.95;46.52;100927.78;5030698;28;20131;-72
2023/04/10 07:14:02;;;;;;;8.23;6.00;;;12.80;59.40;;;12.05;45.69;100922.84;5048981;28;20052;-75
2023/04/10 07:16:30;;;;;;;8.82;6.13;;;12.90;58.50;;;12.11;46.01;100914.81;5047492;28;20065;-74
2023/04/10 07:18:58;;;;;;;9.50;6.40;;;13.00;58.50;;;12.19;46.74;100919.09;5047840;28;20073;-76
2023/04/10 07:21:26;;;;;;;8.98;6.22;;;13.00;59.70;;;12.18;44.45;100922.81;5042410;28;20498;-73
2023/04/10 07:23:53;;;;;;;9.05;6.10;;;13.00;56.50;;;12.19;44.81;100919.09;5048821;28;20115;-75
2023/04/10 07:26:21;;;;;;;8.95;6.00;;;13.00;56.90;;;12.21;43.85;100903.69;5044530;28;20037;-78
2023/04/10 07:28:48;;;;;;;9.13;6.07;;;13.10;55.70;;;12.26;44.84;100903.88;5046661;28;20144;-79
2023/04/10 07:31:16;;;;;;;10.10;6.00;;;13.10;57.00;;;12.31;45.14;100912.06;5046751;28;20040;-82
2023/04/10 07:33:45;;;;;;;8.60;6.05;;;13.20;57.50;;;12.36;44.10;100904.22;5047970;28;20044;-80
2023/04/10 07:36:14;;;;;;;8.73;6.15;;;13.30;56.20;;;12.43;45.16;100898.84;5048310;28;20045;-82
2023/04/10 07:38:42;;;;;;;10.27;6.20;;;13.30;57.50;;;12.50;45.11;100885.44;5045675;28;20120;-79
2023/04/10 07:41:10;;;;;;;10.65;6.70;;;13.40;57.50;;;12.54;44.54;100886.66;5046998;28;20048;-79
2023/04/10 07:43:38;;;;;;;9.48;6.07;;;13.40;56.40;;;12.60;44.26;100886.63;5047730;28;20114;-79
2023/04/10 07:46:06;;;;;;;8.30;5.95;;;13.50;56.10;;;12.62;44.46;100881.06;5046503;28;20098;-78
2023/04/10 07:48:33;;;;;;;8.15;5.70;;;13.50;56.30;;;12.66;44.46;100881.47;5045839;28;20041;-80
2023/04/10 07:51:00;;;;;;;8.27;5.25;;;13.50;56.30;;;12.73;44.75;100876.88;5047514;28;20375;-77
2023/04/10 07:53:28;;;;;;;8.80;5.70;;;13.60;56.70;;;12.75;43.91;100870.28;5048113;28;20491;-75
2023/04/10 07:55:56;;;;;;;10.40;5.82;;;13.60;55.50;;;12.75;44.37;100867.59;5046111;28;20075;-76
2023/04/10 08:00:53;;;;;;;8.15;5.75;;;13.70;54.40;;;12.80;43.63;100857.06;5022896;28;20057;-90
2023/04/10 08:03:21;;;;;;;7.65;5.20;;;13.70;55.00;;;12.87;43.69;100848.97;5024152;28;20053;-92
2023/04/10 08:05:48;;;;;;;8.55;5.63;;;13.80;55.30;;;12.94;44.13;100846.28;5025435;28;20515;-93
2023/04/10 08:08:16;;;;;;;7.38;5.50;;;13.80;55.60;;;12.99;42.88;100847.25;5028451;28;20514;-90
2023/04/10 08:10:45;;;;;;;8.20;5.43;;;13.90;54.90;;;13.06;42.70;100847.19;5001776;28;20042;-90
2023/04/10 08:13:12;;;;;;;8.25;5.53;;;13.90;54.70;;;13.18;44.01;100847.31;5008055;28;20048;-91
2023/04/10 08:15:39;;;;;;;7.60;5.22;;;14.00;55.60;;;13.32;43.97;100843.50;5007514;28;20450;-92
2023/04/10 08:18:06;;;;;;;8.18;5.35;;;14.20;55.80;;;13.39;42.25;100839.72;5017003;28;20188;-90
2023/04/10 08:20:35;;;;;;;7.82;5.38;;;14.30;54.20;;;13.46;42.26;100833.47;5008248;28;20133;-89
2023/04/10 08:23:03;;;;;;;6.97;4.88;;;14.30;53.90;;;13.53;42.73;100832.38;5000954;28;20051;-92
2023/04/10 08:25:31;;;;;;;7.47;5.10;;;14.40;54.50;;;13.58;42.41;100821.81;5005802;28;20038;-92
2023/04/10 08:27:59;;;;;;;7.45;5.28;;;14.50;54.00;;;13.69;40.86;100822.94;5008585;28;20038;-94
2023/04/10 08:30:27;;;;;;;7.93;4.72;;;14.50;52.30;;;13.71;41.04;100823.53;4999554;28;20050;-90
2023/04/10 08:32:55;;;;;;;7.72;4.78;;;14.60;52.40;;;13.69;40.59;100817.56;5009194;28;20077;-88
2023/04/10 08:35:24;;;;;;;5.90;4.32;;;14.60;51.80;;;13.73;42.00;100824.13;5004021;28;20050;-90
2023/04/10 08:37:52;;;;;;;6.40;4.72;;;14.60;53.60;;;13.73;41.74;100821.44;5006517;28;20097;-91
2023/04/10 08:40:19;;;;;;;6.30;4.55;;;14.60;53.20;;;13.80;42.62;100813.31;4998513;28;20138;-91
2023/04/10 08:42:46;;;;;;;8.43;4.63;;;14.70;54.30;;;13.87;41.13;100803.34;4989353;28;20115;-91
2023/04/10 08:45:15;;;;;;;7.35;4.90;;;14.70;52.40;;;13.92;40.51;100806.19;4992471;28;20124;-91
2023/04/10 08:47:45;;;;;;;7.18;4.78;;;14.80;51.70;;;13.97;40.30;100800.97;5007506;28;20129;-90
2023/04/10 08:50:16;;;;;;;7.72;5.10;;;14.80;51.30;;;14.00;40.16;100797.00;4998819;28;20130;-90
2023/04/10 08:52:45;;;;;;;6.57;4.25;;;14.90;51.00;;;13.97;39.90;100786.75;4998241;28;20124;-90
2023/04/10 08:55:14;;;;;;;6.90;4.78;;;14.80;50.80;;;13.95;40.39;100780.78;5013385;28;20068;-90
2023/04/10 08:57:42;;;;;;;6.68;4.22;;;14.90;51.40;;;13.91;39.77;100783.09;5003190;28;20046;-90
2023/04/10 09:00:10;;;;;;;7.72;4.60;;;14.80;50.40;;;13.90;40.22;100787.63;4996976;28;20505;-92
2023/04/10 09:02:40;;;;;;;5.85;4.03;;;14.80;51.00;;;13.93;39.71;100778.31;5008742;28;20052;-91
2023/04/10 09:05:12;;;;;;;8.60;4.25;;;14.80;50.20;;;13.93;39.75;100778.31;4998418;28;20573;-91
2023/04/10 09:07:40;;;;;;;6.45;4.60;;;14.80;50.60;;;13.94;41.68;100771.91;5012164;28;20056;-90
2023/04/10 09:10:09;;;;;;;5.97;4.07;;;14.80;52.80;;;13.96;40.23;100758.25;5012262;28;20112;-91
2023/04/10 09:12:46;;;;;;;6.22;4.18;;;14.80;50.90;;;14.02;40.27;100762.75;5012398;28;20037;-91
2023/04/10 09:15:15;;;;;;;5.97;4.10;;;14.90;51.00;;;14.00;41.00;100765.63;5015208;28;20076;-91
2023/04/10 09:17:57;;;;;;;6.85;4.30;;;14.90;52.10;;;14.02;40.02;100763.56;5006703;28;20054;-91
2023/04/10 09:20:27;;;;;;;6.15;4.28;;;14.90;51.00;;;14.04;40.33;100760.63;4992259;28;20085;-81
2023/04/10 09:22:54;;;;;;;7.22;4.22;;;14.90;51.20;;;14.03;40.72;100765.19;4992485;28;20053;-90
2023/04/10 09:25:32;;;;;;;7.30;4.00;;;14.90;51.50;;;14.02;39.96;100771.59;5004740;28;20516;-84
2023/04/10 09:28:05;;;;;;;7.22;4.07;;;14.90;50.90;;;14.00;40.47;100762.94;5003819;28;20064;-83
2023/04/10 09:30:38;;;;;;;6.90;4.57;;;14.90;51.40;;;13.98;39.88;100766.91;5005690;28;20512;-84
2023/04/10 09:33:22;;;;;;;7.10;4.65;;;14.90;50.70;;;14.00;40.62;100778.22;5007484;28;20042;-82
2023/04/10 09:35:50;;;;;;;6.53;4.18;;;14.90;51.50;;;14.01;39.79;100775.34;5007312;28;20120;-84
2023/04/10 09:38:19;;;;;;;6.72;4.40;;;14.90;50.60;;;14.05;40.34;100773.00;5006716;28;20049;-85
2023/04/10 09:40:48;;;;;;;8.82;4.40;;;14.90;51.10;;;14.10;40.65;100781.19;5010271;28;20060;-82
2023/04/10 09:43:24;;;;;;;6.55;4.10;;;15.00;51.50;;;14.14;39.89;100768.97;5008984;28;20038;-87
2023/04/10 09:45:53;;;;;;;6.97;4.35;;;15.00;50.40;;;14.24;40.77;100763.06;5010640;28;20132;-84
2023/04/10 09:48:23;;;;;;;7.00;3.92;;;15.10;51.70;;;14.34;39.15;100757.94;5010524;28;20076;-88
2023/04/10 09:50:51;;;;;;;5.82;3.85;;;15.20;49.60;;;14.35;39.98;100754.25;5006701;28;20049;-86
2023/04/10 09:53:20;;;;;;;7.55;4.30;;;15.20;50.40;;;14.39;39.41;100736.59;5008472;28;20042;-85
2023/04/10 09:55:50;;;;;;;6.07;3.85;;;15.30;49.90;;;14.41;38.85;100735.34;5008855;28;20489;-86
2023/04/10 09:58:17;;;;;;;6.10;3.70;;;15.30;49.40;;;14.43;38.68;100738.59;5014988;28;20712;-84
2023/04/10 10:00:46;;;;;;;5.85;3.70;;;15.30;48.70;;;14.41;39.72;100746.09;5009953;28;20136;-86
2023/04/10 10:03:16;;;;;;;5.80;3.67;;;15.30;50.10;;;14.41;39.42;100742.59;5008601;28;20164;-85
2023/04/10 10:05:49;;;;;;;5.50;3.67;;;15.30;49.80;;;14.42;39.77;100731.63;5009988;28;20550;-87
2023/04/10 10:08:17;;;;;;;6.63;3.90;;;15.30;50.20;;;14.48;39.31;100727.22;5008007;28;20108;-85
2023/04/10 10:10:47;;;;;;;5.70;3.72;;;15.40;49.50;;;14.54;39.35;100729.00;5010523;28;20042;-85
2023/04/10 10:13:24;;;;;;;7.70;3.75;;;15.40;49.60;;;14.56;39.84;100737.63;5001687;28;20141;-82
2023/04/10 10:16:05;;;;;;;6.93;3.75;;;15.40;50.40;;;14.57;39.28;100722.34;5009044;28;20037;-85
2023/04/10 10:18:44;;;;;;;8.18;3.95;;;15.40;49.60;;;14.60;39.38;100732.63;5006276;28;20096;-82
2023/04/10 10:21:17;;;;;;;5.63;3.63;;;15.50;49.80;;;14.60;38.73;100721.88;5008537;28;20536;-81
2023/04/10 10:23:52;;;;;;;6.38;3.60;;;15.50;49.00;;;14.57;38.89;100717.78;5007620;28;20108;-83
2023/04/10 10:26:22;;;;;;;6.13;3.65;;;15.50;48.90;;;14.56;37.91;100704.59;5005605;28;20112;-81
2023/04/10 10:28:53;;;;;;;8.35;3.70;;;15.40;47.80;;;14.62;39.81;100698.31;5010179;28;20042;-89
2023/04/10 10:31:23;;;;;;;6.65;3.28;;;15.50;50.30;;;14.67;39.80;100698.41;5006599;28;20037;-90
2023/04/10 10:33:54;;;;;;;5.55;3.47;;;15.50;50.30;;;14.76;39.32;100699.72;5005952;28;20060;-83
2023/04/10 10:36:25;;;;;;;5.07;2.97;;;15.60;49.50;;;14.85;39.21;100687.56;4995191;28;20141;-79
2023/04/10 10:39:06;;;;;;;5.53;3.65;;;15.70;49.30;;;14.92;36.89;100684.75;5009282;28;20057;-84